createdAt,value
2019-06-07T00:00:38.868Z,77040.64
2019-06-07T00:02:53.320Z,77036.97
2019-06-07T00:05:22.802Z,77037.33
2019-06-07T00:07:52.290Z,77039.11
2019-06-07T00:10:36.215Z,77044.80
2019-06-07T00:12:52.993Z,77044.39
2019-06-07T00:15:28.773Z,77042.05
2019-06-07T00:17:53.686Z,77040.35
2019-06-07T00:20:23.804Z,77035.84
2019-06-07T00:22:53.596Z,77034.53
2019-06-07T00:25:24.550Z,77029.47
2019-06-07T00:27:54.292Z,77023.85
2019-06-07T00:30:50.818Z,77017.75
2019-06-07T00:32:56.155Z,77015.41
2019-06-07T00:35:25.569Z,77014.63
2019-06-07T00:37:54.974Z,77007.69
2019-06-07T00:40:31.402Z,77005.44
2019-06-07T00:42:55.653Z,77002.30
2019-06-07T00:45:25.065Z,77002.50
2019-06-07T00:47:54.536Z,77005.58
2019-06-07T00:50:24.520Z,77000.70
2019-06-07T00:55:27.727Z,76997.50
2019-06-07T00:57:56.843Z,76996.66
2019-06-07T01:00:26.286Z,76997.95
2019-06-07T01:02:55.829Z,76997.50
2019-06-07T01:05:31.157Z,76994.31
2019-06-07T01:07:56.723Z,76995.74
2019-06-07T01:10:51.604Z,76992.00
2019-06-07T01:12:57.715Z,76996.33
2019-06-07T01:15:29.037Z,76989.91
2019-06-07T01:20:29.890Z,76979.90
2019-06-07T01:22:59.571Z,76979.25
2019-06-07T01:25:29.277Z,76976.98
2019-06-07T01:27:58.747Z,76971.55
2019-06-07T01:30:29.276Z,76972.53
2019-06-07T01:32:59.678Z,76974.64
2019-06-07T01:35:29.808Z,76978.28
2019-06-07T01:37:59.841Z,76975.88
2019-06-07T01:40:32.572Z,76977.10
2019-06-07T01:43:00.858Z,76970.84
2019-06-07T01:45:31.188Z,76976.04
2019-06-07T01:48:00.816Z,76976.62
2019-06-07T01:50:31.705Z,76976.33
2019-06-07T01:53:01.307Z,76978.13
2019-06-07T01:55:32.793Z,76975.47
2019-06-07T01:58:01.858Z,76972.53
2019-06-07T02:00:32.681Z,76973.02
2019-06-07T02:03:02.460Z,76968.19
2019-06-07T02:05:32.429Z,76965.88
2019-06-07T02:08:02.140Z,76960.09
2019-06-07T02:10:33.613Z,76958.59
2019-06-07T02:13:02.767Z,76954.48
2019-06-07T02:15:36.568Z,76954.48
2019-06-07T02:18:03.412Z,76958.47
2019-06-07T02:20:34.532Z,76955.14
2019-06-07T02:23:04.045Z,76948.38
2019-06-07T02:25:42.837Z,76950.59
2019-06-07T02:28:26.508Z,76948.16
2019-06-07T02:30:44.862Z,76945.33
2019-06-07T02:33:07.022Z,76944.59
2019-06-07T02:35:40.172Z,76947.34
2019-06-07T02:38:07.764Z,76949.88
2019-06-07T02:40:37.708Z,76942.14
2019-06-07T02:43:07.481Z,76940.59
2019-06-07T02:45:43.117Z,76942.30
2019-06-07T02:48:08.194Z,76937.81
2019-06-07T02:50:38.773Z,76933.67
2019-06-07T02:53:08.376Z,76938.06
2019-06-07T02:56:33.286Z,76933.14
2019-06-07T02:58:09.157Z,76933.09
2019-06-07T03:01:08.897Z,76932.91
2019-06-07T03:03:22.286Z,76924.36
2019-06-07T03:05:52.131Z,76928.63
2019-06-07T03:08:21.615Z,76924.95
2019-06-07T03:10:51.446Z,76923.27
2019-06-07T03:13:22.022Z,76925.83
2019-06-07T03:15:56.050Z,76927.73
2019-06-07T03:18:43.259Z,76929.42
2019-06-07T03:21:15.582Z,76931.80
2019-06-07T03:23:45.647Z,76931.57
2019-06-07T03:26:15.118Z,76936.30
2019-06-07T03:28:44.706Z,76936.83
2019-06-07T03:31:14.185Z,76931.12
2019-06-07T03:33:45.513Z,76929.42
2019-06-07T03:36:23.818Z,76936.88
2019-06-07T03:38:46.008Z,76934.00
2019-06-07T03:41:15.479Z,76931.30
2019-06-07T03:43:44.985Z,76932.94
2019-06-07T03:46:14.459Z,76928.63
2019-06-07T03:48:43.930Z,76929.48
2019-06-07T03:51:24.898Z,76922.55
2019-06-07T03:53:44.547Z,76918.69
2019-06-07T03:56:14.628Z,76917.92
2019-06-07T03:58:49.694Z,76917.67
2019-06-07T04:01:15.986Z,76918.03
2019-06-07T04:03:51.311Z,76924.41
2019-06-07T04:06:16.624Z,76930.36
2019-06-07T04:08:46.090Z,76934.91
2019-06-07T04:11:15.494Z,76936.38
2019-06-07T04:13:44.998Z,76940.53
2019-06-07T04:16:14.470Z,76944.38
2019-06-07T04:18:43.948Z,76949.91
2019-06-07T04:21:13.439Z,76957.34
2019-06-07T04:23:45.633Z,76963.95
2019-06-07T04:26:14.129Z,76968.90
2019-06-07T04:31:14.773Z,76983.59
2019-06-07T04:33:44.271Z,76988.44
2019-06-07T04:36:46.962Z,76997.70
2019-06-07T04:39:06.137Z,77001.91
2019-06-07T04:41:37.256Z,77010.66
2019-06-07T04:44:06.714Z,77018.56
2019-06-07T04:46:39.859Z,77022.42
2019-06-07T04:49:07.343Z,77026.16
2019-06-07T04:51:40.590Z,77033.27
2019-06-07T04:54:08.150Z,77038.11
2019-06-07T04:56:41.493Z,77039.98
2019-06-07T05:00:04.300Z,77050.48
2019-06-07T05:01:59.646Z,77057.56
2019-06-07T05:04:31.383Z,77067.76
2019-06-07T05:07:00.354Z,77070.72
2019-06-07T05:09:30.194Z,77076.17
2019-06-07T05:11:59.850Z,77087.18
2019-06-07T05:14:32.542Z,77092.14
2019-06-07T05:17:00.502Z,77091.94
2019-06-07T05:19:30.572Z,77084.22
2019-06-07T05:22:04.762Z,77070.30
2019-06-07T05:24:35.587Z,77069.02
2019-06-07T05:27:03.056Z,77073.70
2019-06-07T05:29:34.674Z,77068.94
2019-06-07T05:32:03.665Z,77069.02
2019-06-07T05:34:34.579Z,77073.25
2019-06-07T05:37:11.479Z,77080.89
2019-06-07T05:39:38.395Z,77090.69
2019-06-07T05:42:06.731Z,77103.07
2019-06-07T05:44:36.630Z,77112.09
2019-06-07T05:47:07.322Z,77125.25
2019-06-07T05:49:40.644Z,77128.99
2019-06-07T05:52:08.220Z,77130.38
2019-06-07T05:54:39.582Z,77135.48
2019-06-07T05:57:08.866Z,77141.44
2019-06-07T05:59:41.189Z,77147.77
2019-06-07T06:02:22.210Z,77153.06
2019-06-07T06:04:45.843Z,77154.27
2019-06-07T06:07:11.970Z,77154.69
2019-06-07T06:09:43.199Z,77159.27
2019-06-07T06:12:12.688Z,77166.36
2019-06-07T06:14:44.483Z,77170.09
2019-06-07T06:17:13.754Z,77177.00
2019-06-07T06:19:47.365Z,77183.71
2019-06-07T06:22:14.590Z,77187.57
2019-06-07T06:25:28.394Z,77204.08
2019-06-07T06:27:55.573Z,77215.70
2019-06-07T06:29:50.110Z,77219.44
2019-06-07T06:34:53.253Z,77227.05
2019-06-07T06:37:20.464Z,77238.39
2019-06-07T06:39:50.269Z,77246.73
2019-06-07T06:42:19.901Z,77257.66
2019-06-07T06:44:53.830Z,77268.23
2019-06-07T06:47:20.628Z,77275.75
2019-06-07T06:49:54.165Z,77284.62
2019-06-07T06:52:21.349Z,77288.91
2019-06-07T06:54:59.701Z,77293.53
2019-06-07T06:57:21.945Z,77300.94
2019-06-07T06:59:52.829Z,77316.23
2019-06-07T07:02:22.492Z,77329.40
2019-06-07T07:04:53.822Z,77340.75
2019-06-07T07:07:23.491Z,77346.91
2019-06-07T07:10:12.304Z,77351.16
2019-06-07T07:12:42.978Z,77361.19
2019-06-07T07:15:19.160Z,77371.19
2019-06-07T07:18:00.669Z,77385.97
2019-06-07T07:20:19.781Z,77393.83
2019-06-07T07:22:53.593Z,77396.56
2019-06-07T07:25:20.559Z,77404.30
2019-06-07T07:27:53.419Z,77414.48
2019-06-07T07:30:50.830Z,77425.84
2019-06-07T07:33:19.396Z,77439.45
2019-06-07T07:36:10.833Z,77448.16
2019-06-07T07:38:19.940Z,77458.62
2019-06-07T07:41:07.660Z,77466.76
2019-06-07T07:43:20.557Z,77470.07
2019-06-07T07:45:54.955Z,77473.72
2019-06-07T07:48:21.487Z,77486.45
2019-06-07T07:50:54.408Z,77502.73
2019-06-07T07:53:22.238Z,77515.82
2019-06-07T07:55:54.920Z,77524.70
2019-06-07T07:58:23.119Z,77535.34
2019-06-07T08:01:00.819Z,77548.92
2019-06-07T08:03:23.758Z,77575.81
2019-06-07T08:05:57.036Z,77572.36
2019-06-07T08:08:24.407Z,77573.07
2019-06-07T08:10:56.479Z,77591.57
2019-06-07T08:13:27.661Z,77617.44
2019-06-07T08:15:59.658Z,77633.04
2019-06-07T08:18:27.891Z,77642.75
2019-06-07T08:21:17.227Z,77643.94
2019-06-07T08:23:28.773Z,77662.62
2019-06-07T08:26:01.141Z,77688.66
2019-06-07T08:28:29.598Z,77713.03
2019-06-07T08:31:06.417Z,77727.70
2019-06-07T08:33:30.379Z,77740.71
2019-06-07T08:36:19.522Z,77760.79
2019-06-07T08:38:47.053Z,77792.27
2019-06-07T08:41:11.012Z,77786.69
2019-06-07T08:43:33.449Z,77774.75
2019-06-07T08:46:07.438Z,77778.25
2019-06-07T08:48:34.153Z,77779.80
2019-06-07T08:51:08.137Z,77813.22
2019-06-07T08:53:34.828Z,77841.45
2019-06-07T08:56:09.896Z,77869.63
2019-06-07T08:58:35.374Z,77876.70
2019-06-07T09:01:08.374Z,77882.93
2019-06-07T09:03:35.981Z,77892.58
2019-06-07T09:06:16.472Z,77919.79
2019-06-07T09:08:36.772Z,77943.72
2019-06-07T09:11:10.945Z,77962.75
2019-06-07T09:13:37.424Z,77966.56
2019-06-07T09:16:09.022Z,77981.20
2019-06-07T09:18:43.548Z,77979.26
2019-06-07T09:21:09.885Z,77954.25
2019-06-07T09:23:39.708Z,77972.31
2019-06-07T09:26:17.988Z,78004.77
2019-06-07T09:28:40.459Z,78013.76
2019-06-07T09:31:12.473Z,78047.53
2019-06-07T09:33:41.047Z,78078.30
2019-06-07T09:36:13.265Z,78109.28
2019-06-07T09:38:41.969Z,78135.95
2019-06-07T09:41:11.368Z,78140.45
2019-06-07T09:44:20.386Z,78147.51
2019-06-07T09:46:15.723Z,78165.36
2019-06-07T09:51:20.059Z,78256.99
2019-06-07T09:53:45.612Z,78298.30
2019-06-07T09:56:15.107Z,78285.81
2019-06-07T09:58:53.539Z,78267.70
2019-06-07T10:01:15.704Z,78260.41
2019-06-07T10:03:45.190Z,78244.56
2019-06-07T10:06:14.655Z,78249.72
2019-06-07T10:11:16.835Z,78289.97
2019-06-07T10:13:46.280Z,78328.22
2019-06-07T10:16:15.671Z,78356.83
2019-06-07T10:18:45.162Z,78385.59
2019-06-07T10:21:15.507Z,78432.06
2019-06-07T10:23:45.360Z,78440.38
2019-06-07T10:26:14.860Z,78411.73
2019-06-07T10:28:44.386Z,78457.02
2019-06-07T10:31:13.904Z,78494.78
2019-06-07T10:33:43.423Z,78532.14
2019-06-07T10:36:12.890Z,78516.69
2019-06-07T10:38:42.367Z,78519.60
2019-06-07T10:41:11.855Z,78550.05
2019-06-07T10:43:41.274Z,78570.77
2019-06-07T10:46:12.073Z,78554.86
2019-06-07T10:48:41.859Z,78555.73
2019-06-07T10:51:14.379Z,78572.64
2019-06-07T10:53:42.506Z,78539.77
2019-06-07T10:56:13.325Z,78569.31
2019-06-07T10:58:42.970Z,78563.74
2019-06-07T11:01:13.949Z,78595.41
2019-06-07T11:03:43.903Z,78644.16
2019-06-07T11:06:14.312Z,78681.33
2019-06-07T11:08:43.980Z,78739.73
2019-06-07T11:11:14.380Z,78772.98
2019-06-07T11:13:44.108Z,78788.48
2019-06-07T11:16:15.517Z,78837.98
2019-06-07T11:18:44.793Z,78861.51
2019-06-07T11:21:14.419Z,78893.69
2019-06-07T11:23:44.027Z,78924.59
2019-06-07T11:26:14.417Z,78885.51
2019-06-07T11:28:44.181Z,78862.53
2019-06-07T11:31:14.930Z,78839.66
2019-06-07T11:33:44.717Z,78846.09
2019-06-07T11:36:15.250Z,78899.60
2019-06-07T11:38:44.930Z,78983.16
2019-06-07T11:41:15.675Z,79013.17
2019-06-07T11:43:45.330Z,79051.39
2019-06-07T11:46:15.165Z,79115.75
2019-06-07T11:48:44.696Z,79072.44
2019-06-07T11:51:14.884Z,79062.56
2019-06-07T11:53:44.622Z,79083.11
2019-06-07T11:56:14.174Z,79033.94
2019-06-07T11:58:43.492Z,79009.52
2019-06-07T12:01:14.911Z,78987.92
2019-06-07T12:03:44.189Z,78934.38
2019-06-07T12:06:14.573Z,78906.66
2019-06-07T12:08:44.450Z,78879.70
2019-06-07T12:11:14.405Z,78910.99
2019-06-07T12:13:44.001Z,78977.66
2019-06-07T12:16:14.068Z,79072.72
2019-06-07T12:18:44.835Z,79063.97
2019-06-07T12:21:15.646Z,79042.34
2019-06-07T12:23:45.391Z,79036.69
2019-06-07T12:26:14.887Z,79122.69
2019-06-07T12:28:44.469Z,79165.63
2019-06-07T12:31:15.011Z,79218.58
2019-06-07T12:33:44.613Z,79268.80
2019-06-07T12:36:14.043Z,79292.23
2019-06-07T12:38:43.518Z,79290.59
2019-06-07T12:41:14.036Z,79263.70
2019-06-07T12:43:43.781Z,79203.73
2019-06-07T12:46:15.432Z,79184.86
2019-06-07T12:48:44.440Z,79260.26
2019-06-07T12:51:15.090Z,79269.39
2019-06-07T12:53:44.646Z,79198.90
2019-06-07T12:56:15.330Z,79185.29
2019-06-07T12:58:45.267Z,79222.15
2019-06-07T13:01:15.897Z,79274.55
2019-06-07T13:03:45.514Z,79353.02
2019-06-07T13:06:15.406Z,79449.39
2019-06-07T13:08:44.985Z,79499.53
2019-06-07T13:11:21.230Z,79561.44
2019-06-07T13:13:45.566Z,79682.39
2019-06-07T13:16:16.341Z,79738.14
2019-06-07T13:18:46.536Z,79793.13
2019-06-07T13:21:16.273Z,79876.75
2019-06-07T13:23:45.801Z,80046.26
2019-06-07T13:26:16.733Z,80156.04
2019-06-07T13:28:46.715Z,80099.02
2019-06-07T13:31:16.500Z,80075.83
2019-06-07T13:33:46.149Z,80183.88
2019-06-07T13:36:16.035Z,80250.02
2019-06-07T13:38:45.706Z,80168.19
2019-06-07T13:41:30.200Z,80090.30
2019-06-07T13:43:46.281Z,80168.83
2019-06-07T13:46:16.877Z,80018.62
2019-06-07T13:48:46.523Z,80067.14
2019-06-07T13:51:18.392Z,80129.95
2019-06-07T13:53:47.073Z,80195.12
2019-06-07T13:56:17.765Z,80217.41
2019-06-07T13:58:47.352Z,80309.67
2019-06-07T14:01:16.751Z,80391.51
2019-06-07T14:03:46.126Z,80458.94
2019-06-07T14:06:15.457Z,80521.97
2019-06-07T14:08:44.928Z,80436.63
2019-06-07T14:11:14.395Z,80416.69
2019-06-07T14:13:44.732Z,80376.97
2019-06-07T14:16:14.228Z,80193.03
2019-06-07T14:18:43.789Z,80021.17
2019-06-07T14:21:13.182Z,80021.40
2019-06-07T14:23:49.134Z,80030.28
2019-06-07T14:26:13.868Z,80000.23
2019-06-07T14:28:43.339Z,79948.52
2019-06-07T14:31:12.842Z,79838.59
2019-06-07T14:33:42.215Z,79664.27
2019-06-07T14:36:11.708Z,79552.84
2019-06-07T14:38:41.178Z,79528.78
2019-06-07T14:41:10.778Z,79421.64
2019-06-07T14:43:40.278Z,79359.36
2019-06-07T14:46:09.742Z,79285.70
2019-06-07T14:48:39.244Z,79260.91
2019-06-07T14:51:08.709Z,79282.14
2019-06-07T14:53:38.131Z,79309.92
2019-06-07T14:56:07.532Z,79363.70
2019-06-07T14:58:42.774Z,79393.21
2019-06-07T15:01:08.159Z,79398.63
2019-06-07T15:03:39.062Z,79345.13
2019-06-07T15:06:08.722Z,79268.13
2019-06-07T15:08:39.174Z,79267.16
2019-06-07T15:11:08.843Z,79224.28
2019-06-07T15:13:39.760Z,79161.00
2019-06-07T15:16:09.464Z,79122.91
2019-06-07T15:18:38.947Z,79168.61
2019-06-07T15:21:08.407Z,79212.59
2019-06-07T15:23:39.263Z,79239.78
2019-06-07T15:26:08.963Z,79229.17
2019-06-07T15:28:38.554Z,79147.83
2019-06-07T15:31:08.144Z,79107.58
2019-06-07T15:33:38.374Z,79077.22
2019-06-07T15:36:08.019Z,79072.98
2019-06-07T15:38:39.101Z,79056.17
2019-06-07T15:41:08.555Z,79015.23
2019-06-07T15:43:39.062Z,79008.20
2019-06-07T15:46:08.893Z,79010.13
2019-06-07T15:48:38.461Z,78987.68
2019-06-07T15:51:07.783Z,78945.75
2019-06-07T15:53:42.309Z,78933.86
2019-06-07T15:56:08.557Z,78955.16
2019-06-07T15:58:39.428Z,78963.20
2019-06-07T16:01:09.131Z,78981.04
2019-06-07T16:03:39.880Z,78959.50
2019-06-07T16:06:09.490Z,78932.06
2019-06-07T16:08:38.844Z,78938.14
2019-06-07T16:11:08.314Z,78955.29
2019-06-07T16:13:38.794Z,78975.64
2019-06-07T16:16:08.559Z,78983.58
2019-06-07T16:18:39.723Z,78957.63
2019-06-07T16:21:09.326Z,78943.45
2019-06-07T16:23:39.859Z,78945.71
2019-06-07T16:26:09.502Z,78879.72
2019-06-07T16:28:38.994Z,78854.16
2019-06-07T16:31:08.249Z,78872.52
2019-06-07T16:33:38.825Z,78900.34
2019-06-07T16:36:08.429Z,78904.16
2019-06-07T16:38:38.071Z,78913.27
2019-06-07T16:41:07.592Z,78903.77
2019-06-07T16:43:38.447Z,78902.82
2019-06-07T16:46:07.990Z,78921.64
2019-06-07T16:48:38.744Z,78896.20
2019-06-07T16:51:08.230Z,78865.86
2019-06-07T16:53:38.211Z,78840.19
2019-06-07T16:56:07.815Z,78805.73
2019-06-07T16:58:37.858Z,78788.33
2019-06-07T17:01:07.459Z,78768.77
2019-06-07T17:03:37.289Z,78701.08
2019-06-07T17:06:06.867Z,78670.23
2019-06-07T17:08:37.867Z,78668.64
2019-06-07T17:11:07.430Z,78677.14
2019-06-07T17:13:38.081Z,78694.27
2019-06-07T17:16:07.714Z,78717.05
2019-06-07T17:18:37.336Z,78721.30
2019-06-07T17:21:07.133Z,78699.58
2019-06-07T17:23:36.627Z,78677.70
2019-06-07T17:26:06.081Z,78692.93
2019-06-07T17:28:35.554Z,78706.47
2019-06-07T17:31:04.971Z,78709.57
2019-06-07T17:33:34.320Z,78669.50
2019-06-07T17:36:03.724Z,78645.70
2019-06-07T17:38:33.121Z,78616.09
2019-06-07T17:41:02.556Z,78597.63
2019-06-07T17:43:32.028Z,78597.08
2019-06-07T17:46:01.446Z,78605.93
2019-06-07T17:48:30.930Z,78629.08
2019-06-07T17:51:00.624Z,78645.33
2019-06-07T17:53:30.709Z,78644.42
2019-06-07T17:56:00.210Z,78632.72
2019-06-07T17:58:29.731Z,78603.98
2019-06-07T18:00:59.548Z,78601.84
2019-06-07T18:03:28.887Z,78564.64
2019-06-07T18:05:58.517Z,78542.21
2019-06-07T18:08:27.869Z,78522.57
2019-06-07T18:10:57.297Z,78519.79
2019-06-07T18:13:26.782Z,78516.22
2019-06-07T18:15:59.486Z,78490.52
2019-06-07T18:18:27.381Z,78457.38
2019-06-07T18:20:56.887Z,78439.93
2019-06-07T18:23:26.345Z,78428.61
2019-06-07T18:25:55.843Z,78401.11
2019-06-07T18:28:25.859Z,78372.52
2019-06-07T18:30:55.349Z,78334.63
2019-06-07T18:33:24.862Z,78312.48
2019-06-07T18:35:55.312Z,78293.14
2019-06-07T18:38:25.101Z,78280.17
2019-06-07T18:40:55.367Z,78256.06
2019-06-07T18:43:25.009Z,78236.02
2019-06-07T18:45:55.943Z,78221.27
2019-06-07T18:48:25.578Z,78203.66
2019-06-07T18:50:55.050Z,78193.61
2019-06-07T18:53:24.574Z,78186.34
2019-06-07T18:55:54.129Z,78179.72
2019-06-07T18:58:23.565Z,78160.01
2019-06-07T19:00:53.795Z,78145.00
2019-06-07T19:03:23.464Z,78137.34
2019-06-07T19:05:54.175Z,78135.01
2019-06-07T19:08:23.859Z,78120.86
2019-06-07T19:10:53.238Z,78111.27
2019-06-07T19:13:22.682Z,78104.84
2019-06-07T19:15:53.319Z,78105.34
2019-06-07T19:18:22.853Z,78104.32
2019-06-07T19:20:52.523Z,78105.84
2019-06-07T19:23:22.120Z,78095.63
2019-06-07T19:25:52.204Z,78087.52
2019-06-07T19:28:21.767Z,78074.75
2019-06-07T19:30:51.234Z,78066.09
2019-06-07T19:33:20.743Z,78050.52
2019-06-07T19:35:51.348Z,78044.18
2019-06-07T19:38:21.166Z,78034.19
2019-06-07T19:40:51.677Z,78030.35
2019-06-07T19:43:21.329Z,78015.06
2019-06-07T19:45:52.078Z,77986.53
2019-06-07T19:48:22.229Z,77973.83
2019-06-07T19:50:52.877Z,77939.59
2019-06-07T19:53:23.146Z,77914.21
2019-06-07T19:55:53.065Z,77910.51
2019-06-07T19:58:23.274Z,77890.33
2019-06-07T20:00:53.382Z,77874.11
2019-06-07T20:03:23.378Z,77883.72
2019-06-07T20:05:54.047Z,77879.47
2019-06-07T20:08:23.837Z,77870.70
2019-06-07T20:10:54.438Z,77849.29
2019-06-07T20:13:24.400Z,77829.28
2019-06-07T20:15:54.727Z,77812.83
2019-06-07T20:18:27.764Z,77800.55
2019-06-07T20:20:56.409Z,77784.89
2019-06-07T20:23:26.296Z,77783.89
2019-06-07T20:25:56.156Z,77781.09
2019-06-07T20:28:26.124Z,77765.10
2019-06-07T20:30:55.577Z,77741.50
2019-06-07T20:36:30.493Z,77726.13
2019-06-07T20:39:00.232Z,77724.04
2019-06-07T20:41:29.785Z,77738.25
2019-06-07T20:43:59.730Z,77727.00
2019-06-07T20:46:29.274Z,77699.55
2019-06-07T20:49:00.335Z,77681.97
2019-06-07T20:51:29.847Z,77670.55
2019-06-07T20:54:00.381Z,77661.36
2019-06-07T20:56:30.093Z,77665.36
2019-06-07T20:59:00.477Z,77660.64
2019-06-07T21:01:30.016Z,77657.55
2019-06-07T21:03:59.409Z,77645.70
2019-06-07T21:06:28.840Z,77633.13
2019-06-07T21:08:59.336Z,77613.59
2019-06-07T21:11:28.915Z,77608.73
2019-06-07T21:13:59.906Z,77597.70
2019-06-07T21:16:29.427Z,77598.08
2019-06-07T21:19:00.030Z,77589.53
2019-06-07T21:21:29.707Z,77586.61
2019-06-07T21:24:00.419Z,77580.11
2019-06-07T21:26:29.970Z,77556.98
2019-06-07T21:29:01.045Z,77550.38
2019-06-07T21:31:30.594Z,77549.47
2019-06-07T21:34:01.270Z,77546.63
2019-06-07T21:36:30.935Z,77538.80
2019-06-07T21:39:00.395Z,77540.55
2019-06-07T21:41:29.898Z,77532.45
2019-06-07T21:43:59.373Z,77533.73
2019-06-07T21:46:28.728Z,77524.36
2019-06-07T21:48:58.187Z,77519.84
2019-06-07T21:51:27.677Z,77506.23
2019-06-07T21:53:57.008Z,77502.48
2019-06-07T21:56:26.476Z,77501.95
2019-06-07T21:58:55.966Z,77492.85
2019-06-07T22:01:25.976Z,77501.13
2019-06-07T22:03:55.456Z,77503.97
2019-06-07T22:06:25.067Z,77490.87
2019-06-07T22:08:54.531Z,77484.85
2019-06-07T22:11:24.031Z,77477.69
2019-06-07T22:13:53.425Z,77470.91
2019-06-07T22:16:28.913Z,77465.19
2019-06-07T22:18:54.167Z,77460.67
2019-06-07T22:21:23.895Z,77453.47
2019-06-07T22:23:53.372Z,77451.63
2019-06-07T22:26:22.808Z,77444.16
2019-06-07T22:28:52.262Z,77430.78
2019-06-07T22:31:21.666Z,77429.72
2019-06-07T22:33:51.168Z,77428.18
2019-06-07T22:36:20.633Z,77423.33
2019-06-07T22:38:50.137Z,77405.21
2019-06-07T22:41:19.546Z,77406.03
2019-06-07T22:43:49.017Z,77397.89
2019-06-07T22:46:19.287Z,77399.86
2019-06-07T22:48:48.939Z,77392.16
2019-06-07T22:51:18.491Z,77391.34
2019-06-07T22:53:48.030Z,77394.41
2019-06-07T22:56:19.087Z,77405.09
2019-06-07T22:58:48.596Z,77391.12
2019-06-07T23:01:20.084Z,77378.72
2019-06-07T23:03:49.289Z,77375.45
2019-06-07T23:06:19.040Z,77371.13
2019-06-07T23:08:48.640Z,77369.22
2019-06-07T23:11:19.424Z,77358.69
2019-06-07T23:13:49.139Z,77367.03
2019-06-07T23:16:19.823Z,77359.44
2019-06-07T23:18:49.478Z,77352.73
2019-06-07T23:21:20.131Z,77360.81
2019-06-07T23:23:49.960Z,77352.51
2019-06-07T23:26:20.594Z,77351.77
2019-06-07T23:28:50.322Z,77351.41
2019-06-07T23:31:20.811Z,77358.22
2019-06-07T23:33:50.618Z,77349.23
2019-06-07T23:36:21.339Z,77331.25
2019-06-07T23:38:50.927Z,77323.09
2019-06-07T23:41:22.183Z,77317.98
2019-06-07T23:43:51.890Z,77317.81
2019-06-07T23:46:21.717Z,77315.12
2019-06-07T23:48:51.291Z,77314.84
2019-06-07T23:51:21.994Z,77307.04
2019-06-07T23:53:51.585Z,77299.02
2019-06-07T23:56:22.288Z,77297.88
2019-06-07T23:58:51.965Z,77299.58
